createdAt,value
2023-04-26T00:00:19.891Z,2.97
2023-04-26T00:03:21.990Z,2.80
2023-04-26T00:06:23.955Z,2.42
2023-04-26T00:09:25.845Z,2.80
2023-04-26T00:12:27.901Z,2.75
2023-04-26T00:15:29.917Z,2.70
2023-04-26T00:18:31.984Z,3.20
2023-04-26T00:21:33.924Z,3.00
2023-04-26T00:24:36.178Z,2.78
2023-04-26T00:27:38.055Z,2.90
2023-04-26T00:30:47.452Z,2.80
2023-04-26T00:33:51.098Z,2.70
2023-04-26T00:36:53.348Z,2.90
2023-04-26T00:39:57.411Z,2.95
2023-04-26T00:42:59.492Z,2.60
2023-04-26T00:46:01.774Z,2.63
2023-04-26T00:49:03.763Z,3.20
2023-04-26T00:52:06.119Z,3.20
2023-04-26T00:55:08.956Z,3.33
2023-04-26T01:01:13.588Z,2.75
2023-04-26T01:04:17.836Z,2.78
2023-04-26T01:07:20.664Z,3.10
2023-04-26T01:10:22.954Z,3.60
2023-04-26T01:13:26.285Z,3.15
2023-04-26T01:16:28.394Z,3.42
2023-04-26T01:19:30.285Z,3.38
2023-04-26T01:22:33.279Z,3.40
2023-04-26T01:28:37.677Z,2.90
2023-04-26T01:31:40.126Z,2.78
2023-04-26T01:34:41.981Z,2.92
2023-04-26T01:37:46.350Z,3.55
2023-04-26T01:40:48.208Z,3.20
2023-04-26T01:43:50.531Z,3.15
2023-04-26T01:46:53.438Z,2.90
2023-04-26T01:49:55.351Z,2.92
2023-04-26T01:52:57.274Z,3.03
2023-04-26T01:56:02.925Z,2.90
2023-04-26T01:59:06.019Z,3.00
2023-04-26T02:02:08.371Z,3.28
2023-04-26T02:05:13.265Z,2.97
2023-04-26T02:08:15.090Z,3.30
2023-04-26T02:11:17.052Z,3.25
2023-04-26T02:14:19.105Z,3.33
2023-04-26T02:17:21.512Z,3.20
2023-04-26T02:20:23.522Z,2.97
2023-04-26T02:23:25.604Z,2.93
2023-04-26T02:26:27.510Z,3.53
2023-04-26T02:29:42.272Z,3.63
2023-04-26T02:32:46.288Z,3.40
2023-04-26T02:35:48.587Z,3.20
2023-04-26T02:38:51.384Z,3.20
2023-04-26T02:41:53.353Z,3.30
2023-04-26T02:44:55.597Z,3.45
2023-04-26T02:47:58.641Z,2.88
2023-04-26T02:51:00.633Z,3.07
2023-04-26T02:54:04.548Z,3.43
2023-04-26T02:57:08.427Z,2.67
2023-04-26T03:00:11.774Z,2.83
2023-04-26T03:03:14.831Z,2.97
2023-04-26T03:09:18.705Z,2.75
2023-04-26T03:12:20.806Z,2.70
2023-04-26T03:15:23.524Z,3.15
2023-04-26T03:18:25.477Z,3.05
2023-04-26T03:21:28.099Z,3.45
2023-04-26T03:24:30.992Z,2.92
2023-04-26T03:27:32.831Z,2.85
2023-04-26T03:30:35.819Z,3.30
2023-04-26T03:33:37.824Z,2.60
2023-04-26T03:36:40.145Z,3.08
2023-04-26T03:39:42.242Z,3.20
2023-04-26T03:42:45.996Z,2.70
2023-04-26T03:45:49.544Z,3.05
2023-04-26T03:48:51.737Z,2.50
2023-04-26T03:51:53.842Z,3.35
2023-04-26T03:54:55.832Z,2.88
2023-04-26T03:57:57.748Z,3.03
2023-04-26T04:00:59.677Z,2.90
2023-04-26T04:04:02.069Z,2.85
2023-04-26T04:07:04.881Z,2.85
2023-04-26T04:10:10.139Z,3.20
2023-04-26T04:13:12.187Z,3.20
2023-04-26T04:16:14.090Z,2.70
2023-04-26T04:19:16.534Z,3.45
2023-04-26T04:22:19.036Z,2.72
2023-04-26T04:25:22.788Z,2.80
2023-04-26T04:28:25.065Z,2.50
2023-04-26T04:31:27.209Z,2.43
2023-04-26T04:34:29.302Z,2.60
2023-04-26T04:37:33.655Z,2.38
2023-04-26T04:40:35.902Z,2.67
2023-04-26T04:43:38.083Z,2.30
2023-04-26T04:46:41.732Z,2.17
2023-04-26T04:49:43.704Z,2.10
2023-04-26T04:52:46.330Z,2.13
2023-04-26T04:55:49.392Z,1.95
2023-04-26T04:58:52.560Z,2.08
2023-04-26T05:01:56.888Z,2.50
2023-04-26T05:04:59.065Z,1.83
2023-04-26T05:08:01.322Z,2.30
2023-04-26T05:11:03.215Z,2.22
2023-04-26T05:14:05.320Z,2.17
2023-04-26T05:17:07.344Z,2.40
2023-04-26T05:20:11.111Z,1.95
2023-04-26T05:23:13.240Z,2.05
2023-04-26T05:26:18.391Z,2.10
2023-04-26T05:29:20.336Z,2.15
2023-04-26T05:32:34.477Z,2.13
2023-04-26T05:36:02.585Z,1.92
2023-04-26T05:39:06.500Z,1.95
2023-04-26T05:42:08.617Z,2.00
2023-04-26T05:45:11.815Z,1.83
2023-04-26T05:48:14.128Z,2.30
2023-04-26T05:51:16.123Z,2.33
2023-04-26T05:54:18.111Z,2.30
2023-04-26T05:57:20.171Z,1.90
2023-04-26T06:00:23.689Z,1.70
2023-04-26T06:03:26.082Z,1.63
2023-04-26T06:06:29.030Z,2.00
2023-04-26T06:09:34.082Z,2.00
2023-04-26T06:12:35.941Z,1.77
2023-04-26T06:15:37.955Z,1.90
2023-04-26T06:18:40.537Z,1.70
2023-04-26T06:21:42.373Z,1.60
2023-04-26T06:24:44.244Z,1.87
2023-04-26T06:27:46.164Z,1.67
2023-04-26T06:30:48.759Z,1.50
2023-04-26T06:33:50.989Z,1.63
2023-04-26T06:39:57.564Z,1.50
2023-04-26T06:43:01.473Z,1.50
2023-04-26T06:46:12.132Z,1.50
2023-04-26T06:52:16.700Z,1.10
2023-04-26T06:55:19.077Z,1.40
2023-04-26T06:58:21.408Z,1.73
2023-04-26T07:01:23.308Z,1.40
2023-04-26T07:04:25.554Z,1.48
2023-04-26T07:07:27.673Z,1.42
2023-04-26T07:10:29.521Z,1.63
2023-04-26T07:13:31.744Z,1.20
2023-04-26T07:16:33.831Z,1.30
2023-04-26T07:19:36.009Z,1.35
2023-04-26T07:22:38.569Z,1.52
2023-04-26T07:25:41.013Z,1.30
2023-04-26T07:31:45.393Z,1.25
2023-04-26T07:34:47.321Z,1.60
2023-04-26T07:37:49.118Z,1.23
2023-04-26T07:40:51.716Z,1.17
2023-04-26T07:43:54.019Z,1.20
2023-04-26T07:46:56.146Z,1.25
2023-04-26T07:49:58.093Z,1.15
2023-04-26T07:53:00.068Z,1.30
2023-04-26T07:56:05.918Z,1.38
2023-04-26T07:59:07.816Z,1.40
2023-04-26T08:02:09.890Z,1.15
2023-04-26T08:05:12.022Z,1.50
2023-04-26T08:08:13.966Z,1.30
2023-04-26T08:11:16.112Z,1.20
2023-04-26T08:14:18.024Z,1.30
2023-04-26T08:17:19.986Z,1.30
2023-04-26T08:20:21.858Z,0.93
2023-04-26T08:23:23.706Z,1.33
2023-04-26T08:26:25.630Z,1.50
2023-04-26T08:29:28.050Z,1.33
2023-04-26T08:32:33.028Z,1.65
2023-04-26T08:35:34.965Z,1.20
2023-04-26T08:38:36.915Z,1.20
2023-04-26T08:41:49.830Z,1.52
2023-04-26T08:44:53.270Z,1.30
2023-04-26T08:48:03.928Z,1.52
2023-04-26T08:51:09.330Z,1.30
2023-04-26T08:54:12.152Z,1.30
2023-04-26T08:57:14.863Z,1.30
2023-04-26T09:00:18.320Z,1.35
2023-04-26T09:03:23.588Z,1.20
2023-04-26T09:06:28.277Z,1.30
2023-04-26T09:09:42.715Z,1.30
2023-04-26T09:12:44.576Z,1.15
2023-04-26T09:15:48.573Z,1.20
2023-04-26T09:18:57.323Z,1.25
2023-04-26T09:21:59.304Z,1.33
2023-04-26T09:25:04.023Z,1.02
2023-04-26T09:28:20.807Z,1.25
2023-04-26T09:31:42.769Z,1.30
2023-04-26T09:34:47.063Z,1.40
2023-04-26T09:38:11.083Z,1.20
2023-04-26T09:41:14.019Z,1.33
2023-04-26T09:44:23.349Z,1.55
2023-04-26T09:47:25.444Z,1.20
2023-04-26T09:50:29.156Z,1.20
2023-04-26T09:53:47.360Z,1.58
2023-04-26T09:57:01.869Z,1.48
2023-04-26T10:00:09.366Z,1.45
2023-04-26T10:03:12.238Z,1.10
2023-04-26T10:06:14.431Z,1.27
2023-04-26T10:09:16.334Z,1.45
2023-04-26T10:12:20.293Z,1.10
2023-04-26T10:15:22.762Z,1.67
2023-04-26T10:18:24.759Z,1.42
2023-04-26T10:21:31.606Z,1.40
2023-04-26T10:24:35.282Z,1.50
2023-04-26T10:27:55.354Z,1.52
2023-04-26T10:30:59.445Z,1.52
2023-04-26T10:34:22.716Z,1.95
2023-04-26T10:37:24.650Z,1.58
2023-04-26T10:40:31.051Z,1.65
2023-04-26T10:43:33.045Z,1.70
2023-04-26T10:46:37.356Z,1.65
2023-04-26T10:49:47.093Z,1.73
2023-04-26T10:53:04.201Z,1.60
2023-04-26T10:56:06.919Z,1.70
2023-04-26T11:02:52.833Z,1.73
2023-04-26T11:05:55.639Z,1.60
2023-04-26T11:09:00.187Z,1.60
2023-04-26T11:12:04.635Z,1.40
2023-04-26T11:15:07.324Z,1.30
2023-04-26T11:18:09.300Z,1.70
2023-04-26T11:21:13.077Z,1.27
2023-04-26T11:24:16.002Z,1.73
2023-04-26T11:27:17.891Z,1.45
2023-04-26T11:30:20.127Z,1.40
2023-04-26T11:36:27.291Z,1.30
2023-04-26T11:42:31.314Z,1.33
2023-04-26T11:45:35.171Z,1.40
2023-04-26T11:48:39.047Z,1.48
2023-04-26T11:51:41.699Z,1.55
2023-04-26T11:54:44.523Z,1.20
2023-04-26T11:57:46.547Z,1.08
2023-04-26T12:01:04.363Z,1.25
2023-04-26T12:04:10.613Z,1.30
2023-04-26T12:07:12.765Z,1.30
2023-04-26T12:10:16.454Z,1.60
2023-04-26T12:13:19.806Z,1.40
2023-04-26T12:16:26.608Z,1.30
2023-04-26T12:19:33.114Z,1.30
2023-04-26T12:22:35.205Z,1.20
2023-04-26T12:25:42.313Z,1.20
2023-04-26T12:28:44.152Z,1.17
2023-04-26T12:31:46.891Z,1.60
2023-04-26T12:34:48.952Z,1.10
2023-04-26T12:37:53.997Z,1.30
2023-04-26T12:40:56.034Z,1.40
2023-04-26T12:43:58.356Z,1.70
2023-04-26T12:50:02.107Z,1.47
2023-04-26T12:53:04.460Z,1.45
2023-04-26T12:56:06.940Z,1.30
2023-04-26T12:59:11.801Z,1.45
2023-04-26T13:02:13.814Z,1.20
2023-04-26T13:05:15.901Z,1.25
2023-04-26T13:08:17.881Z,1.27
2023-04-26T13:11:19.900Z,1.30
2023-04-26T13:14:23.360Z,1.23
2023-04-26T13:17:26.663Z,1.25
2023-04-26T13:20:30.841Z,1.17
2023-04-26T13:23:32.980Z,1.10
2023-04-26T13:26:34.851Z,1.10
2023-04-26T13:29:36.991Z,1.00
2023-04-26T13:35:40.989Z,1.23
2023-04-26T13:38:45.598Z,1.27
2023-04-26T13:41:47.550Z,1.08
2023-04-26T13:44:51.495Z,1.10
2023-04-26T13:47:53.393Z,1.58
2023-04-26T13:50:58.987Z,0.90
2023-04-26T13:54:00.973Z,1.13
2023-04-26T13:57:04.003Z,1.20
2023-04-26T14:00:08.270Z,1.00
2023-04-26T14:03:13.572Z,1.20
2023-04-26T14:09:18.584Z,0.90
2023-04-26T14:12:20.641Z,1.15
2023-04-26T14:15:22.869Z,1.10
2023-04-26T14:21:26.912Z,1.10
2023-04-26T14:27:30.738Z,1.30
2023-04-26T14:30:32.670Z,1.10
2023-04-26T14:33:35.149Z,1.20
2023-04-26T14:36:37.065Z,1.45
2023-04-26T14:39:39.045Z,1.15
2023-04-26T14:42:45.839Z,1.10
2023-04-26T14:45:48.044Z,0.90
2023-04-26T14:48:50.289Z,1.40
2023-04-26T14:54:55.786Z,1.00
2023-04-26T14:57:57.678Z,1.30
2023-04-26T15:00:59.736Z,1.33
2023-04-26T15:04:01.951Z,1.08
2023-04-26T15:10:08.683Z,1.08
2023-04-26T15:13:10.814Z,1.25
2023-04-26T15:16:12.813Z,1.05
2023-04-26T15:19:14.838Z,0.93
2023-04-26T15:22:16.688Z,1.17
2023-04-26T15:25:18.805Z,1.00
2023-04-26T15:28:20.684Z,1.50
2023-04-26T15:31:22.700Z,1.17
2023-04-26T15:34:25.374Z,1.20
2023-04-26T15:37:27.257Z,1.40
2023-04-26T15:40:29.232Z,1.30
2023-04-26T15:43:31.036Z,1.17
2023-04-26T15:46:32.938Z,1.05
2023-04-26T15:49:34.948Z,1.30
2023-04-26T15:52:39.536Z,1.20
2023-04-26T15:55:41.959Z,1.25
2023-04-26T15:58:47.366Z,1.10
2023-04-26T16:01:49.251Z,1.20
2023-04-26T16:04:51.417Z,1.20
2023-04-26T16:07:53.399Z,1.30
2023-04-26T16:11:02.149Z,1.20
2023-04-26T16:14:04.114Z,1.25
2023-04-26T16:17:06.072Z,1.10
2023-04-26T16:20:08.861Z,1.25
2023-04-26T16:23:11.251Z,1.17
2023-04-26T16:29:15.191Z,3.50
2023-04-26T16:32:17.327Z,6.82
2023-04-26T16:35:19.284Z,7.00
2023-04-26T16:38:22.230Z,6.40
2023-04-26T16:41:24.669Z,5.57
2023-04-26T16:47:28.385Z,3.25
2023-04-26T16:50:30.242Z,2.88
2023-04-26T16:53:32.719Z,2.25
2023-04-26T16:59:36.686Z,1.33
2023-04-26T17:02:40.579Z,1.20
2023-04-26T17:05:47.841Z,1.20
2023-04-26T17:08:49.735Z,1.05
2023-04-26T17:11:51.669Z,1.15
2023-04-26T17:14:53.556Z,1.25
2023-04-26T17:17:55.475Z,1.65
2023-04-26T17:20:57.817Z,1.20
2023-04-26T17:23:59.613Z,1.23
2023-04-26T17:27:01.564Z,1.20
2023-04-26T17:30:03.748Z,1.20
2023-04-26T17:33:07.622Z,1.25
2023-04-26T17:36:09.715Z,1.30
2023-04-26T17:39:11.626Z,1.73
2023-04-26T17:42:13.464Z,1.35
2023-04-26T17:45:15.540Z,1.67
2023-04-26T17:48:17.467Z,1.50
2023-04-26T17:51:19.370Z,1.77
2023-04-26T17:54:22.046Z,1.77
2023-04-26T18:00:26.396Z,2.10
2023-04-26T18:03:31.501Z,5.25
2023-04-26T18:06:33.630Z,7.13
2023-04-26T18:09:35.522Z,4.72
2023-04-26T18:12:38.200Z,4.55
2023-04-26T18:15:40.086Z,2.97
2023-04-26T18:18:42.050Z,1.90
2023-04-26T18:21:43.917Z,1.60
2023-04-26T18:24:47.121Z,1.25
2023-04-26T18:27:49.096Z,1.25
2023-04-26T18:30:56.538Z,1.10
2023-04-26T18:33:58.400Z,1.67
2023-04-26T18:37:00.276Z,1.40
2023-04-26T18:40:02.212Z,1.50
2023-04-26T18:43:04.157Z,2.00
2023-04-26T18:46:07.190Z,3.65
2023-04-26T18:49:09.589Z,4.28
2023-04-26T18:52:11.486Z,2.72
2023-04-26T18:55:14.306Z,1.52
2023-04-26T18:58:16.807Z,1.80
2023-04-26T19:04:20.986Z,1.30
2023-04-26T19:07:23.758Z,1.30
2023-04-26T19:13:27.700Z,1.20
2023-04-26T19:16:29.736Z,1.40
2023-04-26T19:19:32.024Z,1.10
2023-04-26T19:22:33.927Z,1.30
2023-04-26T19:25:36.018Z,0.98
2023-04-26T19:28:38.298Z,1.20
2023-04-26T19:31:40.275Z,1.00
2023-04-26T19:34:42.178Z,1.10
2023-04-26T19:37:44.073Z,1.77
2023-04-26T19:40:46.289Z,1.40
2023-04-26T19:43:48.161Z,1.40
2023-04-26T19:46:50.177Z,5.13
2023-04-26T19:49:53.111Z,2.45
2023-04-26T19:52:54.999Z,1.67
2023-04-26T19:55:56.916Z,1.30
2023-04-26T19:58:58.724Z,1.05
2023-04-26T20:02:00.657Z,1.20
2023-04-26T20:05:02.539Z,1.25
2023-04-26T20:08:04.589Z,0.93
2023-04-26T20:11:07.242Z,1.10
2023-04-26T20:17:11.043Z,1.10
2023-04-26T20:20:13.149Z,1.20
2023-04-26T20:23:15.098Z,1.15
2023-04-26T20:26:17.023Z,1.08
2023-04-26T20:29:18.947Z,1.17
2023-04-26T20:32:21.002Z,1.10
2023-04-26T22:48:44.057Z,1.73
2023-04-26T22:51:57.343Z,1.77
2023-04-26T22:55:08.234Z,1.80
2023-04-26T22:58:10.718Z,1.73
2023-04-26T23:01:12.674Z,1.75
2023-04-26T23:04:14.684Z,1.50
2023-04-26T23:07:16.784Z,1.63
2023-04-26T23:10:18.810Z,1.47
2023-04-26T23:13:21.625Z,1.70
2023-04-26T23:16:24.101Z,1.60
2023-04-26T23:19:26.804Z,1.65
2023-04-26T23:25:30.715Z,1.48
2023-04-26T23:28:32.677Z,1.43
2023-04-26T23:31:34.683Z,1.40
2023-04-26T23:34:36.591Z,1.35
2023-04-26T23:37:38.584Z,1.43
2023-04-26T23:40:40.700Z,1.37
2023-04-26T23:43:42.563Z,1.58
2023-04-26T23:46:44.483Z,1.70
2023-04-26T23:49:46.429Z,1.50
2023-04-26T23:52:48.406Z,1.63
2023-04-26T23:55:50.445Z,1.70
2023-04-26T23:58:52.355Z,1.40
